Check out our new PWSWeather beta!
PWSweather.com
Personal Weather Stations
Station Observations
MDTECH
White Bluff, TN 37187

White Bluff, TN 37187

Lat: 36.111655, Lon: -87.214046

Elevation: 817

Station Type: Acu-Right 1035

http://mdtech.tech

High Low Average
Temperature 82.0°F27.8°C 66.2°F19.0°C 74.2°F23.4°C
Dew Point 68.8°F20.4°C 65.0°F18.3°C 66.6°F19.2°C
Winds 6.3 mph 10.1 kmh Calm Calm 1.0 mph W1.6 kmh W
Wind Gusts 6.3 mph10.1 kmh -- 3.0 mph4.8 kmh
Humidity 96% 63% 78%
Pressure 29.32 in992.9 mb 29.30 in992.2 mb -
Precipitation 0.00 in0.0 mm - -
Hour Temp Dew Point Humidity Winds Wind Gusts Pressure Precip Precip Rate Daily Precip Total
06:37 AM 66.2°F19.0°C 65.0°F18.3°C 96% Calm Calm -- 29.30 in992.2 mb 0.00 in0.0 mm 0.00 in0.0 mm 0.00 in0.0 mm
06:38 AM 66.2°F19.0°C 65.0°F18.3°C 96% Calm Calm -- 29.30 in992.2 mb 0.00 in0.0 mm 0.00 in0.0 mm 0.00 in0.0 mm
06:39 AM 66.2°F19.0°C 65.0°F18.3°C 96% Calm Calm -- 29.30 in992.2 mb 0.00 in0.0 mm 0.00 in0.0 mm 0.00 in0.0 mm
06:40 AM 66.2°F19.0°C 65.0°F18.3°C 96% Calm Calm -- 29.30 in992.2 mb 0.00 in0.0 mm 0.00 in0.0 mm 0.00 in0.0 mm
06:41 AM 66.4°F19.1°C 65.2°F18.4°C 96% Calm Calm -- 29.30 in992.2 mb 0.00 in0.0 mm 0.00 in0.0 mm 0.00 in0.0 mm
06:42 AM 66.4°F19.1°C 65.2°F18.4°C 96% Calm Calm -- 29.30 in992.2 mb 0.00 in0.0 mm 0.00 in0.0 mm 0.00 in0.0 mm
06:43 AM 66.6°F19.2°C 65.4°F18.6°C 96% Calm Calm -- 29.30 in992.2 mb 0.00 in0.0 mm 0.00 in0.0 mm 0.00 in0.0 mm
06:44 AM 66.7°F19.3°C 65.6°F18.7°C 96% Calm Calm -- 29.30 in992.2 mb 0.00 in0.0 mm 0.00 in0.0 mm 0.00 in0.0 mm
06:45 AM 66.7°F19.3°C 65.6°F18.7°C 96% Calm Calm -- 29.30 in992.2 mb 0.00 in0.0 mm 0.00 in0.0 mm 0.00 in0.0 mm
06:46 AM 66.9°F19.4°C 65.4°F18.6°C 95% Calm Calm -- 29.30 in992.2 mb 0.00 in0.0 mm 0.00 in0.0 mm 0.00 in0.0 mm
06:47 AM 67.1°F19.5°C 65.6°F18.7°C 95% Calm Calm -- 29.30 in992.2 mb 0.00 in0.0 mm 0.00 in0.0 mm 0.00 in0.0 mm
06:48 AM 67.3°F19.6°C 65.5°F18.6°C 94% Calm Calm -- 29.30 in992.2 mb 0.00 in0.0 mm 0.00 in0.0 mm 0.00 in0.0 mm
06:49 AM 67.3°F19.6°C 65.5°F18.6°C 94% Calm Calm -- 29.30 in992.2 mb 0.00 in0.0 mm 0.00 in0.0 mm 0.00 in0.0 mm
06:50 AM 67.3°F19.6°C 65.5°F18.6°C 94% Calm Calm -- 29.30 in992.2 mb 0.00 in0.0 mm 0.00 in0.0 mm 0.00 in0.0 mm
06:51 AM 67.5°F19.7°C 65.4°F18.6°C 93% Calm Calm -- 29.30 in992.2 mb 0.00 in0.0 mm 0.00 in0.0 mm 0.00 in0.0 mm
06:52 AM 67.5°F19.7°C 65.4°F18.6°C 93% Calm Calm -- 29.30 in992.2 mb 0.00 in0.0 mm 0.00 in0.0 mm 0.00 in0.0 mm
06:53 AM 67.6°F19.8°C 65.5°F18.6°C 93% Calm Calm -- 29.30 in992.2 mb 0.00 in0.0 mm 0.00 in0.0 mm 0.00 in0.0 mm
06:54 AM 67.6°F19.8°C 65.5°F18.6°C 93% Calm Calm -- 29.30 in992.2 mb 0.00 in0.0 mm 0.00 in0.0 mm 0.00 in0.0 mm
06:55 AM 67.8°F19.9°C 65.4°F18.6°C 92% Calm Calm -- 29.31 in992.6 mb 0.00 in0.0 mm 0.00 in0.0 mm 0.00 in0.0 mm
06:56 AM 68.0°F20.0°C 65.6°F18.7°C 92% Calm Calm -- 29.31 in992.6 mb 0.00 in0.0 mm 0.00 in0.0 mm 0.00 in0.0 mm
06:57 AM 68.0°F20.0°C 65.6°F18.7°C 92% Calm Calm -- 29.31 in992.6 mb 0.00 in0.0 mm 0.00 in0.0 mm 0.00 in0.0 mm
06:58 AM 68.2°F20.1°C 65.8°F18.8°C 92% Calm Calm -- 29.31 in992.6 mb 0.00 in0.0 mm 0.00 in0.0 mm 0.00 in0.0 mm
06:59 AM 68.2°F20.1°C 65.8°F18.8°C 92% Calm Calm -- 29.31 in992.6 mb 0.00 in0.0 mm 0.00 in0.0 mm 0.00 in0.0 mm
07:00 AM 68.2°F20.1°C 65.8°F18.8°C 92% Calm Calm -- 29.31 in992.6 mb 0.00 in0.0 mm 0.00 in0.0 mm 0.00 in0.0 mm
07:01 AM 68.2°F20.1°C 65.8°F18.8°C 92% Calm Calm -- 29.31 in992.6 mb 0.00 in0.0 mm 0.00 in0.0 mm 0.00 in0.0 mm
07:02 AM 68.2°F20.1°C 65.8°F18.8°C 92% Calm Calm -- 29.31 in992.6 mb 0.00 in0.0 mm 0.00 in0.0 mm 0.00 in0.0 mm
07:03 AM 68.2°F20.1°C 65.8°F18.8°C 92% Calm Calm -- 29.31 in992.6 mb 0.00 in0.0 mm 0.00 in0.0 mm 0.00 in0.0 mm
07:04 AM 68.2°F20.1°C 65.8°F18.8°C 92% Calm Calm -- 29.31 in992.6 mb 0.00 in0.0 mm 0.00 in0.0 mm 0.00 in0.0 mm
07:05 AM 68.4°F20.2°C 65.9°F18.8°C 92% Calm Calm -- 29.31 in992.6 mb 0.00 in0.0 mm 0.00 in0.0 mm 0.00 in0.0 mm
07:06 AM 68.5°F20.3°C 65.8°F18.8°C 91% Calm Calm -- 29.31 in992.6 mb 0.00 in0.0 mm 0.00 in0.0 mm 0.00 in0.0 mm
07:07 AM 68.5°F20.3°C 65.8°F18.8°C 91% Calm Calm -- 29.31 in992.6 mb 0.00 in0.0 mm 0.00 in0.0 mm 0.00 in0.0 mm
07:08 AM 68.5°F20.3°C 65.8°F18.8°C 91% Calm Calm -- 29.31 in992.6 mb 0.00 in0.0 mm 0.00 in0.0 mm 0.00 in0.0 mm
07:09 AM 68.7°F20.4°C 66.0°F18.9°C 91% Calm Calm -- 29.31 in992.6 mb 0.00 in0.0 mm 0.00 in0.0 mm 0.00 in0.0 mm
07:10 AM 68.9°F20.5°C 66.2°F19.0°C 91% Calm Calm -- 29.31 in992.6 mb 0.00 in0.0 mm 0.00 in0.0 mm 0.00 in0.0 mm
07:11 AM 68.9°F20.5°C 66.2°F19.0°C 91% Calm Calm -- 29.31 in992.6 mb 0.00 in0.0 mm 0.00 in0.0 mm 0.00 in0.0 mm
07:12 AM 68.9°F20.5°C 65.8°F18.8°C 90% Calm Calm -- 29.31 in992.6 mb 0.00 in0.0 mm 0.00 in0.0 mm 0.00 in0.0 mm
07:13 AM 69.1°F20.6°C 65.7°F18.7°C 89% Calm Calm -- 29.31 in992.6 mb 0.00 in0.0 mm 0.00 in0.0 mm 0.00 in0.0 mm
07:14 AM 69.3°F20.7°C 65.9°F18.8°C 89% Calm Calm -- 29.31 in992.6 mb 0.00 in0.0 mm 0.00 in0.0 mm 0.00 in0.0 mm
07:15 AM 69.3°F20.7°C 65.9°F18.8°C 89% Calm Calm -- 29.31 in992.6 mb 0.00 in0.0 mm 0.00 in0.0 mm 0.00 in0.0 mm
07:16 AM 69.3°F20.7°C 65.9°F18.8°C 89% Calm Calm -- 29.31 in992.6 mb 0.00 in0.0 mm 0.00 in0.0 mm 0.00 in0.0 mm
07:17 AM 69.3°F20.7°C 65.5°F18.6°C 88% Calm Calm -- 29.31 in992.6 mb 0.00 in0.0 mm 0.00 in0.0 mm 0.00 in0.0 mm
07:18 AM 69.4°F20.8°C 65.7°F18.7°C 88% Calm Calm -- 29.31 in992.6 mb 0.00 in0.0 mm 0.00 in0.0 mm 0.00 in0.0 mm
07:19 AM 69.4°F20.8°C 65.7°F18.7°C 88% Calm Calm -- 29.31 in992.6 mb 0.00 in0.0 mm 0.00 in0.0 mm 0.00 in0.0 mm
07:20 AM 69.6°F20.9°C 65.9°F18.8°C 88% Calm Calm -- 29.31 in992.6 mb 0.00 in0.0 mm 0.00 in0.0 mm 0.00 in0.0 mm
07:21 AM 69.6°F20.9°C 65.9°F18.8°C 88% Calm Calm -- 29.31 in992.6 mb 0.00 in0.0 mm 0.00 in0.0 mm 0.00 in0.0 mm
07:22 AM 69.8°F21.0°C 66.1°F18.9°C 88% 2.7 mph N4.3 kmh N 2.7 mph4.3 kmh 29.31 in992.6 mb 0.00 in0.0 mm 0.00 in0.0 mm 0.00 in0.0 mm
07:23 AM 70.0°F21.1°C 65.6°F18.7°C 86% Calm Calm 2.7 mph4.3 kmh 29.31 in992.6 mb 0.00 in0.0 mm 0.00 in0.0 mm 0.00 in0.0 mm
07:24 AM 70.0°F21.1°C 65.6°F18.7°C 86% Calm Calm 2.7 mph4.3 kmh 29.31 in992.6 mb 0.00 in0.0 mm 0.00 in0.0 mm 0.00 in0.0 mm
07:25 AM 70.2°F21.2°C 66.1°F18.9°C 87% Calm Calm 2.7 mph4.3 kmh 29.31 in992.6 mb 0.00 in0.0 mm 0.00 in0.0 mm 0.00 in0.0 mm
07:26 AM 70.2°F21.2°C 66.1°F18.9°C 87% Calm Calm 2.7 mph4.3 kmh 29.31 in992.6 mb 0.00 in0.0 mm 0.00 in0.0 mm 0.00 in0.0 mm
07:27 AM 70.2°F21.2°C 66.1°F18.9°C 87% Calm Calm 2.7 mph4.3 kmh 29.31 in992.6 mb 0.00 in0.0 mm 0.00 in0.0 mm 0.00 in0.0 mm
07:28 AM 70.3°F21.3°C 66.3°F19.1°C 87% Calm Calm 2.7 mph4.3 kmh 29.31 in992.6 mb 0.00 in0.0 mm 0.00 in0.0 mm 0.00 in0.0 mm
07:29 AM 70.5°F21.4°C 66.5°F19.2°C 87% Calm Calm 2.7 mph4.3 kmh 29.31 in992.6 mb 0.00 in0.0 mm 0.00 in0.0 mm 0.00 in0.0 mm
07:30 AM 70.5°F21.4°C 66.1°F18.9°C 86% Calm Calm 2.7 mph4.3 kmh 29.31 in992.6 mb 0.00 in0.0 mm 0.00 in0.0 mm 0.00 in0.0 mm
07:31 AM 70.7°F21.5°C 66.3°F19.1°C 86% Calm Calm 2.7 mph4.3 kmh 29.32 in992.9 mb 0.00 in0.0 mm 0.00 in0.0 mm 0.00 in0.0 mm
07:32 AM 71.1°F21.7°C 66.0°F18.9°C 84% Calm Calm 2.2 mph3.5 kmh 29.32 in992.9 mb 0.00 in0.0 mm 0.00 in0.0 mm 0.00 in0.0 mm
07:33 AM 71.1°F21.7°C 66.0°F18.9°C 84% Calm Calm 2.2 mph3.5 kmh 29.32 in992.9 mb 0.00 in0.0 mm 0.00 in0.0 mm 0.00 in0.0 mm
07:34 AM 71.2°F21.8°C 65.8°F18.8°C 83% Calm Calm 2.2 mph3.5 kmh 29.32 in992.9 mb 0.00 in0.0 mm 0.00 in0.0 mm 0.00 in0.0 mm
07:35 AM 71.2°F21.8°C 65.8°F18.8°C 83% Calm Calm 2.2 mph3.5 kmh 29.32 in992.9 mb 0.00 in0.0 mm 0.00 in0.0 mm 0.00 in0.0 mm
07:36 AM 71.4°F21.9°C 66.0°F18.9°C 83% Calm Calm 2.2 mph3.5 kmh 29.32 in992.9 mb 0.00 in0.0 mm 0.00 in0.0 mm 0.00 in0.0 mm
07:37 AM 71.6°F22.0°C 66.5°F19.2°C 84% 1.7 mph N2.7 kmh N 2.2 mph3.5 kmh 29.32 in992.9 mb 0.00 in0.0 mm 0.00 in0.0 mm 0.00 in0.0 mm
07:38 AM 71.8°F22.1°C 66.0°F18.9°C 82% Calm Calm 2.2 mph3.5 kmh 29.32 in992.9 mb 0.00 in0.0 mm 0.00 in0.0 mm 0.00 in0.0 mm
07:39 AM 72.0°F22.2°C 66.2°F19.0°C 82% Calm Calm 2.2 mph3.5 kmh 29.32 in992.9 mb 0.00 in0.0 mm 0.00 in0.0 mm 0.00 in0.0 mm
07:40 AM 72.1°F22.3°C 66.0°F18.9°C 81% Calm Calm 2.2 mph3.5 kmh 29.32 in992.9 mb 0.00 in0.0 mm 0.00 in0.0 mm 0.00 in0.0 mm
07:41 AM 72.1°F22.3°C 66.3°F19.1°C 82% Calm Calm 2.2 mph3.5 kmh 29.32 in992.9 mb 0.00 in0.0 mm 0.00 in0.0 mm 0.00 in0.0 mm
07:42 AM 72.1°F22.3°C 66.7°F19.3°C 83% Calm Calm 1.7 mph2.7 kmh 29.32 in992.9 mb 0.00 in0.0 mm 0.00 in0.0 mm 0.00 in0.0 mm
07:43 AM 72.5°F22.5°C 66.0°F18.9°C 80% Calm Calm 1.7 mph2.7 kmh 29.32 in992.9 mb 0.00 in0.0 mm 0.00 in0.0 mm 0.00 in0.0 mm
07:44 AM 72.5°F22.5°C 66.0°F18.9°C 80% Calm Calm 1.7 mph2.7 kmh 29.32 in992.9 mb 0.00 in0.0 mm 0.00 in0.0 mm 0.00 in0.0 mm
07:45 AM 72.9°F22.7°C 66.3°F19.1°C 80% Calm Calm 1.7 mph2.7 kmh 29.32 in992.9 mb 0.00 in0.0 mm 0.00 in0.0 mm 0.00 in0.0 mm
07:46 AM 72.9°F22.7°C 66.3°F19.1°C 80% Calm Calm 1.7 mph2.7 kmh 29.32 in992.9 mb 0.00 in0.0 mm 0.00 in0.0 mm 0.00 in0.0 mm
07:47 AM 73.0°F22.8°C 66.5°F19.2°C 80% Calm Calm 1.7 mph2.7 kmh 29.32 in992.9 mb 0.00 in0.0 mm 0.00 in0.0 mm 0.00 in0.0 mm
07:48 AM 73.0°F22.8°C 66.1°F18.9°C 79% Calm Calm 1.7 mph2.7 kmh 29.32 in992.9 mb 0.00 in0.0 mm 0.00 in0.0 mm 0.00 in0.0 mm
07:49 AM 73.2°F22.9°C 66.3°F19.1°C 79% Calm Calm 1.7 mph2.7 kmh 29.32 in992.9 mb 0.00 in0.0 mm 0.00 in0.0 mm 0.00 in0.0 mm
07:50 AM 73.4°F23.0°C 66.1°F18.9°C 78% 2.2 mph NE3.5 kmh NE 3.7 mph6.0 kmh 29.32 in992.9 mb 0.00 in0.0 mm 0.00 in0.0 mm 0.00 in0.0 mm
07:51 AM 73.8°F23.2°C 66.1°F18.9°C 77% 1.7 mph N2.7 kmh N 3.7 mph6.0 kmh 29.32 in992.9 mb 0.00 in0.0 mm 0.00 in0.0 mm 0.00 in0.0 mm
07:52 AM 73.9°F23.3°C 66.3°F19.1°C 77% Calm Calm 3.7 mph6.0 kmh 29.32 in992.9 mb 0.00 in0.0 mm 0.00 in0.0 mm 0.00 in0.0 mm
07:53 AM 73.9°F23.3°C 66.6°F19.2°C 78% Calm Calm 3.7 mph6.0 kmh 29.32 in992.9 mb 0.00 in0.0 mm 0.00 in0.0 mm 0.00 in0.0 mm
07:54 AM 73.8°F23.2°C 66.1°F18.9°C 77% Calm Calm 3.7 mph6.0 kmh 29.32 in992.9 mb 0.00 in0.0 mm 0.00 in0.0 mm 0.00 in0.0 mm
07:55 AM 73.8°F23.2°C 66.1°F18.9°C 77% 2.7 mph NE4.3 kmh NE 3.7 mph6.0 kmh 29.31 in992.6 mb 0.00 in0.0 mm 0.00 in0.0 mm 0.00 in0.0 mm
07:56 AM 73.8°F23.2°C 66.1°F18.9°C 77% Calm Calm 3.7 mph6.0 kmh 29.31 in992.6 mb 0.00 in0.0 mm 0.00 in0.0 mm 0.00 in0.0 mm
07:57 AM 73.8°F23.2°C 66.1°F18.9°C 77% 2.2 mph ESE3.5 kmh ESE 3.7 mph6.0 kmh 29.31 in992.6 mb 0.00 in0.0 mm 0.00 in0.0 mm 0.00 in0.0 mm
07:58 AM 74.1°F23.4°C 66.1°F18.9°C 76% Calm Calm 3.7 mph6.0 kmh 29.31 in992.6 mb 0.00 in0.0 mm 0.00 in0.0 mm 0.00 in0.0 mm
07:59 AM 74.3°F23.5°C 66.2°F19.0°C 76% Calm Calm 3.7 mph6.0 kmh 29.31 in992.6 mb 0.00 in0.0 mm 0.00 in0.0 mm 0.00 in0.0 mm
08:00 AM 74.3°F23.5°C 66.6°F19.2°C 77% Calm Calm 3.7 mph6.0 kmh 29.31 in992.6 mb 0.00 in0.0 mm 0.00 in0.0 mm 0.00 in0.0 mm
08:01 AM 75.0°F23.9°C 66.5°F19.2°C 75% 1.7 mph SSW2.7 kmh SSW 3.7 mph6.0 kmh 29.31 in992.6 mb 0.00 in0.0 mm 0.00 in0.0 mm 0.00 in0.0 mm
08:02 AM 75.2°F24.0°C 66.7°F19.3°C 75% Calm Calm 3.2 mph5.1 kmh 29.31 in992.6 mb 0.00 in0.0 mm 0.00 in0.0 mm 0.00 in0.0 mm
08:03 AM 75.9°F24.4°C 66.6°F19.2°C 73% 2.7 mph N4.3 kmh N 3.2 mph5.1 kmh 29.31 in992.6 mb 0.00 in0.0 mm 0.00 in0.0 mm 0.00 in0.0 mm
08:04 AM 76.3°F24.6°C 66.6°F19.2°C 72% 2.2 mph N3.5 kmh N 3.2 mph5.1 kmh 29.31 in992.6 mb 0.00 in0.0 mm 0.00 in0.0 mm 0.00 in0.0 mm
08:05 AM 75.7°F24.3°C 66.8°F19.3°C 74% 2.2 mph N3.5 kmh N 3.2 mph5.1 kmh 29.31 in992.6 mb 0.00 in0.0 mm 0.00 in0.0 mm 0.00 in0.0 mm
08:06 AM 75.9°F24.4°C 66.2°F19.0°C 72% 1.7 mph N2.7 kmh N 3.2 mph5.1 kmh 29.31 in992.6 mb 0.00 in0.0 mm 0.00 in0.0 mm 0.00 in0.0 mm
08:07 AM 75.9°F24.4°C 66.2°F19.0°C 72% Calm Calm 3.2 mph5.1 kmh 29.32 in992.9 mb 0.00 in0.0 mm 0.00 in0.0 mm 0.00 in0.0 mm
08:08 AM 75.7°F24.3°C 66.5°F19.2°C 73% Calm Calm 3.2 mph5.1 kmh 29.32 in992.9 mb 0.00 in0.0 mm 0.00 in0.0 mm 0.00 in0.0 mm
08:09 AM 76.1°F24.5°C 66.8°F19.3°C 73% 2.7 mph N4.3 kmh N 3.2 mph5.1 kmh 29.32 in992.9 mb 0.00 in0.0 mm 0.00 in0.0 mm 0.00 in0.0 mm
08:10 AM 76.1°F24.5°C 66.4°F19.1°C 72% 1.7 mph SSE2.7 kmh SSE 3.2 mph5.1 kmh 29.32 in992.9 mb 0.00 in0.0 mm 0.00 in0.0 mm 0.00 in0.0 mm
08:11 AM 76.3°F24.6°C 66.6°F19.2°C 72% 2.7 mph ESE4.3 kmh ESE 3.2 mph5.1 kmh 29.32 in992.9 mb 0.00 in0.0 mm 0.00 in0.0 mm 0.00 in0.0 mm
08:12 AM 76.1°F24.5°C 66.8°F19.3°C 73% Calm Calm 3.2 mph5.1 kmh 29.32 in992.9 mb 0.00 in0.0 mm 0.00 in0.0 mm 0.00 in0.0 mm
08:13 AM 76.1°F24.5°C 66.8°F19.3°C 73% Calm Calm 3.2 mph5.1 kmh 29.32 in992.9 mb 0.00 in0.0 mm 0.00 in0.0 mm 0.00 in0.0 mm
08:14 AM 76.3°F24.6°C 66.6°F19.2°C 72% 2.2 mph NE3.5 kmh NE 3.2 mph5.1 kmh 29.32 in992.9 mb 0.00 in0.0 mm 0.00 in0.0 mm 0.00 in0.0 mm
08:15 AM 76.8°F24.9°C 66.3°F19.1°C 70% 2.2 mph NNE3.5 kmh NNE 3.2 mph5.1 kmh 29.32 in992.9 mb 0.00 in0.0 mm 0.00 in0.0 mm 0.00 in0.0 mm
08:16 AM 76.8°F24.9°C 66.3°F19.1°C 70% 1.7 mph NE2.7 kmh NE 3.2 mph5.1 kmh 29.32 in992.9 mb 0.00 in0.0 mm 0.00 in0.0 mm 0.00 in0.0 mm
08:17 AM 76.8°F24.9°C 65.9°F18.8°C 69% 2.2 mph N3.5 kmh N 4.7 mph7.6 kmh 29.32 in992.9 mb 0.00 in0.0 mm 0.00 in0.0 mm 0.00 in0.0 mm
08:18 AM 77.2°F25.1°C 65.8°F18.8°C 68% 2.2 mph E3.5 kmh E 4.7 mph7.6 kmh 29.32 in992.9 mb 0.00 in0.0 mm 0.00 in0.0 mm 0.00 in0.0 mm
08:19 AM 77.2°F25.1°C 65.8°F18.8°C 68% 3.2 mph N5.1 kmh N 4.7 mph7.6 kmh 29.32 in992.9 mb 0.00 in0.0 mm 0.00 in0.0 mm 0.00 in0.0 mm
08:20 AM 76.8°F24.9°C 65.4°F18.6°C 68% 1.7 mph N2.7 kmh N 4.7 mph7.6 kmh 29.32 in992.9 mb 0.00 in0.0 mm 0.00 in0.0 mm 0.00 in0.0 mm
08:21 AM 76.8°F24.9°C 65.9°F18.8°C 69% 1.7 mph SSE2.7 kmh SSE 4.7 mph7.6 kmh 29.32 in992.9 mb 0.00 in0.0 mm 0.00 in0.0 mm 0.00 in0.0 mm
08:22 AM 77.0°F25.0°C 66.0°F18.9°C 69% 1.7 mph NE2.7 kmh NE 4.7 mph7.6 kmh 29.32 in992.9 mb 0.00 in0.0 mm 0.00 in0.0 mm 0.00 in0.0 mm
08:23 AM 77.0°F25.0°C 66.0°F18.9°C 69% 2.2 mph N3.5 kmh N 4.7 mph7.6 kmh 29.32 in992.9 mb 0.00 in0.0 mm 0.00 in0.0 mm 0.00 in0.0 mm
08:24 AM 77.0°F25.0°C 66.0°F18.9°C 69% 1.1 mph N1.8 kmh N 4.7 mph7.6 kmh 29.32 in992.9 mb 0.00 in0.0 mm 0.00 in0.0 mm 0.00 in0.0 mm
08:25 AM 77.2°F25.1°C 66.6°F19.2°C 70% Calm Calm 4.7 mph7.6 kmh 29.32 in992.9 mb 0.00 in0.0 mm 0.00 in0.0 mm 0.00 in0.0 mm
08:26 AM 77.2°F25.1°C 66.6°F19.2°C 70% 2.7 mph N4.3 kmh N 4.7 mph7.6 kmh 29.32 in992.9 mb 0.00 in0.0 mm 0.00 in0.0 mm 0.00 in0.0 mm
08:27 AM 76.8°F24.9°C 67.5°F19.7°C 73% Calm Calm 3.2 mph5.1 kmh 29.32 in992.9 mb 0.00 in0.0 mm 0.00 in0.0 mm 0.00 in0.0 mm
08:28 AM 77.4°F25.2°C 67.6°F19.8°C 72% Calm Calm 3.2 mph5.1 kmh 29.32 in992.9 mb 0.00 in0.0 mm 0.00 in0.0 mm 0.00 in0.0 mm
08:29 AM 78.1°F25.6°C 67.5°F19.7°C 70% 1.7 mph N2.7 kmh N 3.2 mph5.1 kmh 29.32 in992.9 mb 0.00 in0.0 mm 0.00 in0.0 mm 0.00 in0.0 mm
08:30 AM 77.5°F25.3°C 67.0°F19.4°C 70% 2.2 mph N3.5 kmh N 2.7 mph4.3 kmh 29.32 in992.9 mb 0.00 in0.0 mm 0.00 in0.0 mm 0.00 in0.0 mm
08:31 AM 78.1°F25.6°C 66.6°F19.2°C 68% 1.7 mph N2.7 kmh N 2.7 mph4.3 kmh 29.32 in992.9 mb 0.00 in0.0 mm 0.00 in0.0 mm 0.00 in0.0 mm
08:32 AM 78.4°F25.8°C 67.0°F19.4°C 68% Calm Calm 3.7 mph6.0 kmh 29.32 in992.9 mb 0.00 in0.0 mm 0.00 in0.0 mm 0.00 in0.0 mm
08:33 AM 78.8°F26.0°C 66.9°F19.4°C 67% 2.7 mph N4.3 kmh N 3.7 mph6.0 kmh 29.32 in992.9 mb 0.00 in0.0 mm 0.00 in0.0 mm 0.00 in0.0 mm
08:34 AM 79.0°F26.1°C 66.6°F19.2°C 66% Calm Calm 3.7 mph6.0 kmh 29.32 in992.9 mb 0.00 in0.0 mm 0.00 in0.0 mm 0.00 in0.0 mm
08:35 AM 79.0°F26.1°C 67.5°F19.7°C 68% Calm Calm 3.7 mph6.0 kmh 29.32 in992.9 mb 0.00 in0.0 mm 0.00 in0.0 mm 0.00 in0.0 mm
08:36 AM 79.3°F26.3°C 67.8°F19.9°C 68% 2.2 mph ESE3.5 kmh ESE 3.7 mph6.0 kmh 29.32 in992.9 mb 0.00 in0.0 mm 0.00 in0.0 mm 0.00 in0.0 mm
08:37 AM 79.5°F26.4°C 67.6°F19.8°C 67% 1.7 mph N2.7 kmh N 3.7 mph6.0 kmh 29.32 in992.9 mb 0.00 in0.0 mm 0.00 in0.0 mm 0.00 in0.0 mm
08:38 AM 79.3°F26.3°C 67.4°F19.7°C 67% 1.7 mph ESE2.7 kmh ESE 4.2 mph6.8 kmh 29.32 in992.9 mb 0.00 in0.0 mm 0.00 in0.0 mm 0.00 in0.0 mm
08:39 AM 79.2°F26.2°C 67.2°F19.6°C 67% 2.2 mph N3.5 kmh N 4.2 mph6.8 kmh 29.32 in992.9 mb 0.00 in0.0 mm 0.00 in0.0 mm 0.00 in0.0 mm
08:40 AM 79.2°F26.2°C 67.7°F19.8°C 68% 3.2 mph NE5.1 kmh NE 4.2 mph6.8 kmh 29.32 in992.9 mb 0.00 in0.0 mm 0.00 in0.0 mm 0.00 in0.0 mm
08:41 AM 79.0°F26.1°C 67.1°F19.5°C 67% 2.7 mph N4.3 kmh N 4.2 mph6.8 kmh 29.32 in992.9 mb 0.00 in0.0 mm 0.00 in0.0 mm 0.00 in0.0 mm
08:42 AM 79.3°F26.3°C 67.0°F19.4°C 66% 1.7 mph N2.7 kmh N 4.2 mph6.8 kmh 29.32 in992.9 mb 0.00 in0.0 mm 0.00 in0.0 mm 0.00 in0.0 mm
08:43 AM 79.5°F26.4°C 66.7°F19.3°C 65% 3.7 mph E6.0 kmh E 4.2 mph6.8 kmh 29.32 in992.9 mb 0.00 in0.0 mm 0.00 in0.0 mm 0.00 in0.0 mm
08:44 AM 79.5°F26.4°C 66.7°F19.3°C 65% 1.1 mph N1.8 kmh N 4.2 mph6.8 kmh 29.32 in992.9 mb 0.00 in0.0 mm 0.00 in0.0 mm 0.00 in0.0 mm
08:45 AM 79.3°F26.3°C 67.0°F19.4°C 66% 3.7 mph NNE6.0 kmh NNE 4.7 mph7.6 kmh 29.32 in992.9 mb 0.00 in0.0 mm 0.00 in0.0 mm 0.00 in0.0 mm
08:46 AM 79.3°F26.3°C 66.5°F19.2°C 65% 2.2 mph SW3.5 kmh SW 4.7 mph7.6 kmh 29.32 in992.9 mb 0.00 in0.0 mm 0.00 in0.0 mm 0.00 in0.0 mm
08:47 AM 79.5°F26.4°C 67.1°F19.5°C 66% 2.2 mph N3.5 kmh N 4.7 mph7.6 kmh 29.32 in992.9 mb 0.00 in0.0 mm 0.00 in0.0 mm 0.00 in0.0 mm
08:48 AM 79.0°F26.1°C 67.5°F19.7°C 68% Calm Calm 4.7 mph7.6 kmh 29.32 in992.9 mb 0.00 in0.0 mm 0.00 in0.0 mm 0.00 in0.0 mm
08:49 AM 79.2°F26.2°C 67.7°F19.8°C 68% 3.2 mph N5.1 kmh N 4.7 mph7.6 kmh 29.32 in992.9 mb 0.00 in0.0 mm 0.00 in0.0 mm 0.00 in0.0 mm
08:50 AM 79.7°F26.5°C 67.8°F19.9°C 67% 1.7 mph N2.7 kmh N 4.7 mph7.6 kmh 29.32 in992.9 mb 0.00 in0.0 mm 0.00 in0.0 mm 0.00 in0.0 mm
08:51 AM 79.7°F26.5°C 67.8°F19.9°C 67% 1.7 mph N2.7 kmh N 4.7 mph7.6 kmh 29.32 in992.9 mb 0.00 in0.0 mm 0.00 in0.0 mm 0.00 in0.0 mm
08:52 AM 79.7°F26.5°C 67.3°F19.6°C 66% 1.7 mph N2.7 kmh N 4.7 mph7.6 kmh 29.32 in992.9 mb 0.00 in0.0 mm 0.00 in0.0 mm 0.00 in0.0 mm
08:53 AM 80.4°F26.9°C 68.0°F20.0°C 66% 1.7 mph N2.7 kmh N 4.7 mph7.6 kmh 29.32 in992.9 mb 0.00 in0.0 mm 0.00 in0.0 mm 0.00 in0.0 mm
08:54 AM 80.6°F27.0°C 67.7°F19.8°C 65% 1.7 mph E2.7 kmh E 4.7 mph7.6 kmh 29.32 in992.9 mb 0.00 in0.0 mm 0.00 in0.0 mm 0.00 in0.0 mm
08:55 AM 81.5°F27.5°C 68.1°F20.1°C 64% Calm Calm 3.7 mph6.0 kmh 29.32 in992.9 mb 0.00 in0.0 mm 0.00 in0.0 mm 0.00 in0.0 mm
08:56 AM 81.0°F27.2°C 68.1°F20.1°C 65% Calm Calm 3.2 mph5.1 kmh 29.32 in992.9 mb 0.00 in0.0 mm 0.00 in0.0 mm 0.00 in0.0 mm
08:57 AM 80.8°F27.1°C 68.3°F20.2°C 66% Calm Calm 3.2 mph5.1 kmh 29.32 in992.9 mb 0.00 in0.0 mm 0.00 in0.0 mm 0.00 in0.0 mm
08:58 AM 81.5°F27.5°C 68.1°F20.1°C 64% 1.7 mph SSW2.7 kmh SSW 3.2 mph5.1 kmh 29.32 in992.9 mb 0.00 in0.0 mm 0.00 in0.0 mm 0.00 in0.0 mm
08:59 AM 81.0°F27.2°C 68.1°F20.1°C 65% 1.1 mph W1.8 kmh W 3.2 mph5.1 kmh 29.32 in992.9 mb 0.00 in0.0 mm 0.00 in0.0 mm 0.00 in0.0 mm
09:00 AM 80.8°F27.1°C 68.3°F20.2°C 66% 1.7 mph N2.7 kmh N 2.2 mph3.5 kmh 29.32 in992.9 mb 0.00 in0.0 mm 0.00 in0.0 mm 0.00 in0.0 mm
09:01 AM 80.4°F26.9°C 68.4°F20.2°C 67% 1.1 mph N1.8 kmh N 2.2 mph3.5 kmh 29.32 in992.9 mb 0.00 in0.0 mm 0.00 in0.0 mm 0.00 in0.0 mm
09:02 AM 80.4°F26.9°C 68.0°F20.0°C 66% 6.3 mph WSW10.1 kmh WSW 6.3 mph10.1 kmh 29.32 in992.9 mb 0.00 in0.0 mm 0.00 in0.0 mm 0.00 in0.0 mm
09:03 AM 80.6°F27.0°C 67.7°F19.8°C 65% 1.1 mph NNE1.8 kmh NNE 6.3 mph10.1 kmh 29.32 in992.9 mb 0.00 in0.0 mm 0.00 in0.0 mm 0.00 in0.0 mm
09:04 AM 81.0°F27.2°C 68.1°F20.1°C 65% 1.7 mph N2.7 kmh N 6.3 mph10.1 kmh 29.32 in992.9 mb 0.00 in0.0 mm 0.00 in0.0 mm 0.00 in0.0 mm
09:05 AM 81.0°F27.2°C 68.1°F20.1°C 65% Calm Calm 6.3 mph10.1 kmh 29.32 in992.9 mb 0.00 in0.0 mm 0.00 in0.0 mm 0.00 in0.0 mm
09:06 AM 80.6°F27.0°C 68.2°F20.1°C 66% Calm Calm 6.3 mph10.1 kmh 29.32 in992.9 mb 0.00 in0.0 mm 0.00 in0.0 mm 0.00 in0.0 mm
09:07 AM 80.8°F27.1°C 67.9°F19.9°C 65% Calm Calm 6.3 mph10.1 kmh 29.32 in992.9 mb 0.00 in0.0 mm 0.00 in0.0 mm 0.00 in0.0 mm
09:08 AM 81.1°F27.3°C 68.2°F20.1°C 65% Calm Calm 6.3 mph10.1 kmh 29.32 in992.9 mb 0.00 in0.0 mm 0.00 in0.0 mm 0.00 in0.0 mm
09:09 AM 80.8°F27.1°C 68.8°F20.4°C 67% Calm Calm 6.3 mph10.1 kmh 29.32 in992.9 mb 0.00 in0.0 mm 0.00 in0.0 mm 0.00 in0.0 mm
09:10 AM 81.3°F27.4°C 68.4°F20.2°C 65% 3.2 mph N5.1 kmh N 6.3 mph10.1 kmh 29.32 in992.9 mb 0.00 in0.0 mm 0.00 in0.0 mm 0.00 in0.0 mm
09:11 AM 81.3°F27.4°C 68.0°F20.0°C 64% 1.7 mph WSW2.7 kmh WSW 6.3 mph10.1 kmh 29.32 in992.9 mb 0.00 in0.0 mm 0.00 in0.0 mm 0.00 in0.0 mm
09:12 AM 81.1°F27.3°C 68.7°F20.4°C 66% 2.2 mph N3.5 kmh N 6.3 mph10.1 kmh 29.32 in992.9 mb 0.00 in0.0 mm 0.00 in0.0 mm 0.00 in0.0 mm
09:13 AM 81.0°F27.2°C 68.1°F20.1°C 65% 3.2 mph N5.1 kmh N 3.7 mph6.0 kmh 29.32 in992.9 mb 0.00 in0.0 mm 0.00 in0.0 mm 0.00 in0.0 mm
09:14 AM 81.1°F27.3°C 68.7°F20.4°C 66% 3.2 mph NNW5.1 kmh NNW 3.2 mph5.1 kmh 29.32 in992.9 mb 0.00 in0.0 mm 0.00 in0.0 mm 0.00 in0.0 mm
09:15 AM 81.7°F27.6°C 68.3°F20.2°C 64% Calm Calm 3.2 mph5.1 kmh 29.32 in992.9 mb 0.00 in0.0 mm 0.00 in0.0 mm 0.00 in0.0 mm
09:16 AM 82.0°F27.8°C 68.6°F20.3°C 64% 3.2 mph NE5.1 kmh NE 4.2 mph6.8 kmh 29.32 in992.9 mb 0.00 in0.0 mm 0.00 in0.0 mm 0.00 in0.0 mm
09:17 AM 81.9°F27.7°C 68.5°F20.3°C 64% Calm Calm 4.2 mph6.8 kmh 29.32 in992.9 mb 0.00 in0.0 mm 0.00 in0.0 mm 0.00 in0.0 mm
09:18 AM 81.7°F27.6°C 68.7°F20.4°C 65% 3.2 mph N5.1 kmh N 4.2 mph6.8 kmh 29.32 in992.9 mb 0.00 in0.0 mm 0.00 in0.0 mm 0.00 in0.0 mm
09:19 AM 81.9°F27.7°C 68.5°F20.3°C 64% Calm Calm 4.2 mph6.8 kmh 29.32 in992.9 mb 0.00 in0.0 mm 0.00 in0.0 mm 0.00 in0.0 mm
09:20 AM 81.7°F27.6°C 67.8°F19.9°C 63% 3.2 mph N5.1 kmh N 4.2 mph6.8 kmh 29.32 in992.9 mb 0.00 in0.0 mm 0.00 in0.0 mm 0.00 in0.0 mm